createdAt,value
2023-01-27T00:00:35.882Z,20.27
2023-01-27T00:03:02.572Z,19.17
2023-01-27T00:05:29.411Z,19.65
2023-01-27T00:07:58.393Z,18.65
2023-01-27T00:10:26.149Z,19.58
2023-01-27T00:13:11.904Z,19.98
2023-01-27T00:15:39.584Z,19.52
2023-01-27T00:18:06.727Z,19.50
2023-01-27T00:20:53.047Z,19.83
2023-01-27T00:23:40.368Z,19.58
2023-01-27T00:26:09.806Z,18.63
2023-01-27T00:28:37.961Z,19.55
2023-01-27T00:31:06.027Z,19.70
2023-01-27T00:33:32.808Z,19.05
2023-01-27T00:36:07.276Z,18.75
2023-01-27T00:38:41.945Z,20.05
2023-01-27T00:41:21.213Z,19.42
2023-01-27T00:43:49.825Z,18.95
2023-01-27T00:46:18.175Z,20.75
2023-01-27T00:48:45.431Z,19.77
2023-01-27T00:51:13.638Z,19.25
2023-01-27T00:53:41.406Z,18.85
2023-01-27T00:56:08.483Z,19.20
2023-01-27T00:58:35.643Z,18.25
2023-01-27T01:01:04.769Z,19.73
2023-01-27T01:03:33.490Z,19.77
2023-01-27T01:06:06.465Z,18.98
2023-01-27T01:08:34.650Z,17.13
2023-01-27T01:11:01.482Z,17.48
2023-01-27T01:13:28.595Z,17.88
2023-01-27T01:15:55.825Z,18.95
2023-01-27T01:18:23.144Z,16.73
2023-01-27T01:20:49.775Z,16.70
2023-01-27T01:23:16.661Z,17.67
2023-01-27T01:25:43.509Z,18.23
2023-01-27T01:28:10.532Z,17.20
2023-01-27T01:30:38.225Z,15.45
2023-01-27T01:33:04.985Z,17.60
2023-01-27T01:35:32.226Z,16.95
2023-01-27T01:37:59.126Z,15.88
2023-01-27T01:40:26.100Z,15.23
2023-01-27T01:43:11.373Z,16.25
2023-01-27T01:45:44.705Z,15.80
2023-01-27T01:48:23.305Z,15.75
2023-01-27T01:51:10.748Z,17.42
2023-01-27T01:53:43.703Z,15.68
2023-01-27T01:56:23.059Z,16.05
2023-01-27T01:58:51.106Z,16.27
2023-01-27T02:01:19.289Z,16.52
2023-01-27T02:03:51.036Z,14.88
2023-01-27T02:06:17.972Z,16.38
2023-01-27T02:08:47.607Z,14.60
2023-01-27T02:11:14.434Z,15.35
2023-01-27T02:13:42.921Z,15.07
2023-01-27T02:16:11.189Z,15.02
2023-01-27T02:18:40.614Z,14.90
2023-01-27T02:21:08.945Z,15.38
2023-01-27T02:23:44.103Z,15.57
2023-01-27T02:26:22.884Z,15.27
2023-01-27T02:28:55.903Z,15.10
2023-01-27T02:31:22.958Z,15.07
2023-01-27T02:33:50.159Z,13.98
2023-01-27T02:36:18.531Z,14.13
2023-01-27T02:38:55.265Z,15.00
2023-01-27T02:41:30.657Z,14.90
2023-01-27T02:43:57.660Z,14.10
2023-01-27T02:46:24.302Z,13.50
2023-01-27T02:48:51.335Z,13.20
2023-01-27T02:51:17.923Z,13.55
2023-01-27T02:53:44.710Z,13.48
2023-01-27T02:56:11.402Z,12.75
2023-01-27T02:58:38.503Z,12.82
2023-01-27T03:01:05.350Z,12.15
2023-01-27T03:03:32.122Z,12.18
2023-01-27T03:05:58.838Z,11.90
2023-01-27T03:08:25.551Z,12.15
2023-01-27T03:10:53.469Z,12.40
2023-01-27T03:13:24.152Z,11.35
2023-01-27T03:16:09.288Z,12.15
2023-01-27T03:18:36.494Z,12.13
2023-01-27T03:21:05.521Z,11.82
2023-01-27T03:23:34.717Z,12.30
2023-01-27T03:26:05.830Z,11.60
2023-01-27T03:28:32.656Z,9.88
2023-01-27T03:31:08.548Z,11.43
2023-01-27T03:33:35.582Z,12.10
2023-01-27T03:36:21.761Z,11.02
2023-01-27T03:39:07.313Z,9.70
2023-01-27T03:41:53.316Z,11.90
2023-01-27T03:44:38.788Z,10.63
2023-01-27T03:49:32.157Z,10.20
2023-01-27T03:51:59.000Z,9.07
2023-01-27T03:54:25.773Z,10.70
2023-01-27T03:56:52.362Z,10.50
2023-01-27T03:59:18.951Z,10.02
2023-01-27T04:01:46.111Z,10.30
2023-01-27T04:04:31.323Z,9.10
2023-01-27T04:07:00.642Z,10.43
2023-01-27T04:09:29.964Z,9.77
2023-01-27T04:11:59.716Z,9.93
2023-01-27T04:14:38.158Z,9.90
2023-01-27T04:17:07.579Z,9.85
2023-01-27T04:19:34.274Z,9.27
2023-01-27T04:22:01.784Z,9.13
2023-01-27T04:24:29.075Z,10.52
2023-01-27T04:27:05.357Z,9.23
2023-01-27T04:29:34.913Z,9.13
2023-01-27T04:32:03.473Z,9.40
2023-01-27T04:34:30.335Z,10.77
2023-01-27T04:36:57.395Z,10.10
2023-01-27T04:39:25.327Z,10.25
2023-01-27T04:41:52.392Z,11.10
2023-01-27T04:44:20.290Z,11.43
2023-01-27T04:46:47.223Z,11.10
2023-01-27T04:49:14.008Z,10.20
2023-01-27T04:51:40.743Z,10.35
2023-01-27T04:54:07.538Z,10.48
2023-01-27T04:56:39.981Z,11.27
2023-01-27T04:59:12.487Z,11.50
2023-01-27T05:01:39.169Z,11.30
2023-01-27T05:04:05.945Z,11.60
2023-01-27T05:06:33.132Z,10.95
2023-01-27T05:08:59.833Z,11.00
2023-01-27T05:11:26.470Z,11.25
2023-01-27T05:13:53.412Z,10.90
2023-01-27T05:16:21.903Z,10.60
2023-01-27T05:18:49.733Z,10.48
2023-01-27T05:21:19.742Z,10.90
2023-01-27T05:23:47.556Z,9.73
2023-01-27T05:26:26.405Z,10.68
2023-01-27T05:28:53.944Z,10.10
2023-01-27T05:31:23.668Z,9.50
2023-01-27T05:33:52.552Z,10.63
2023-01-27T05:36:20.734Z,10.32
2023-01-27T05:38:47.661Z,9.60
2023-01-27T05:41:15.701Z,9.77
2023-01-27T05:43:44.161Z,9.70
2023-01-27T05:46:14.156Z,10.23
2023-01-27T05:48:44.090Z,9.57
2023-01-27T05:51:14.539Z,8.48
2023-01-27T05:53:41.844Z,9.20
2023-01-27T05:56:10.532Z,10.40
2023-01-27T05:58:38.160Z,10.10
2023-01-27T06:01:08.163Z,9.75
2023-01-27T06:03:35.139Z,10.18
2023-01-27T06:06:01.919Z,9.60
2023-01-27T06:08:28.621Z,10.57
2023-01-27T06:10:55.462Z,10.27
2023-01-27T06:13:23.669Z,9.77
2023-01-27T06:15:51.328Z,9.85
2023-01-27T06:18:19.251Z,11.13
2023-01-27T06:20:46.127Z,10.90
2023-01-27T06:23:14.241Z,10.50
2023-01-27T06:25:46.576Z,11.18
2023-01-27T06:28:27.781Z,10.57
2023-01-27T06:30:55.245Z,10.48
2023-01-27T06:33:22.095Z,11.45
2023-01-27T06:35:49.109Z,10.55
2023-01-27T06:38:15.735Z,9.88
2023-01-27T06:40:43.166Z,10.43
2023-01-27T06:43:13.620Z,10.68
2023-01-27T06:45:40.588Z,9.45
2023-01-27T06:48:08.425Z,11.00
2023-01-27T06:50:35.600Z,11.40
2023-01-27T06:53:05.097Z,10.82
2023-01-27T06:55:31.993Z,10.07
2023-01-27T06:57:58.829Z,16.70
2023-01-27T07:00:25.505Z,12.10
2023-01-27T07:02:55.653Z,11.80
2023-01-27T07:05:22.458Z,18.50
2023-01-27T07:07:49.117Z,13.77
2023-01-27T07:10:16.483Z,10.57
2023-01-27T07:12:43.376Z,10.75
2023-01-27T07:15:11.135Z,15.10
2023-01-27T07:17:38.548Z,11.95
2023-01-27T07:20:07.947Z,19.15
2023-01-27T07:22:34.791Z,13.27
2023-01-27T07:25:02.204Z,11.00
2023-01-27T07:27:29.513Z,11.75
2023-01-27T07:29:57.204Z,10.43
2023-01-27T07:32:25.882Z,11.65
2023-01-27T07:34:54.891Z,11.02
2023-01-27T07:37:21.601Z,12.45
2023-01-27T07:39:48.183Z,11.75
2023-01-27T07:42:14.880Z,12.25
2023-01-27T07:44:41.551Z,12.43
2023-01-27T07:47:08.202Z,14.05
2023-01-27T07:49:34.850Z,12.02
2023-01-27T07:52:01.490Z,14.10
2023-01-27T07:54:28.211Z,12.63
2023-01-27T07:56:54.931Z,16.63
2023-01-27T07:59:21.624Z,13.85
2023-01-27T08:01:48.501Z,13.20
2023-01-27T08:04:15.464Z,13.95
2023-01-27T08:06:42.254Z,13.63
2023-01-27T08:09:08.980Z,13.57
2023-01-27T08:11:35.985Z,13.77
2023-01-27T08:14:03.193Z,14.65
2023-01-27T08:16:30.037Z,13.35
2023-01-27T08:18:56.702Z,16.75
2023-01-27T08:21:25.161Z,14.82
2023-01-27T08:23:54.012Z,12.88
2023-01-27T08:26:20.702Z,12.15
2023-01-27T08:28:47.406Z,13.15
2023-01-27T08:31:16.117Z,13.23
2023-01-27T08:33:50.055Z,14.40
2023-01-27T08:36:18.055Z,13.00
2023-01-27T08:38:45.336Z,14.02
2023-01-27T08:41:15.191Z,13.20
2023-01-27T08:43:42.205Z,12.35
2023-01-27T08:46:09.635Z,13.45
2023-01-27T08:48:37.506Z,12.98
2023-01-27T08:51:05.863Z,12.48
2023-01-27T08:53:33.329Z,12.38
2023-01-27T08:56:05.100Z,13.82
2023-01-27T08:58:33.333Z,11.90
2023-01-27T09:01:05.705Z,11.25
2023-01-27T09:03:34.127Z,9.50
2023-01-27T09:06:01.623Z,9.73
2023-01-27T09:08:28.661Z,9.45
2023-01-27T09:10:55.312Z,9.82
2023-01-27T09:13:22.247Z,10.02
2023-01-27T09:15:52.551Z,9.73
2023-01-27T09:18:20.030Z,8.35
2023-01-27T09:20:46.879Z,9.57
2023-01-27T09:23:13.714Z,9.05
2023-01-27T09:25:40.344Z,8.70
2023-01-27T09:28:09.861Z,9.57
2023-01-27T09:30:36.776Z,9.25
2023-01-27T09:33:03.657Z,9.05
2023-01-27T09:35:36.164Z,9.45
2023-01-27T09:38:05.571Z,9.20
2023-01-27T09:40:55.619Z,9.45
2023-01-27T09:43:37.259Z,8.82
2023-01-27T09:46:36.574Z,8.77
2023-01-27T09:49:32.590Z,8.63
2023-01-27T09:52:41.773Z,8.68
2023-01-27T09:55:40.587Z,8.80
2023-01-27T09:58:16.659Z,8.90
2023-01-27T10:00:46.248Z,9.10
2023-01-27T10:03:37.489Z,8.60
2023-01-27T10:06:34.768Z,8.93
2023-01-27T10:09:11.088Z,9.10
2023-01-27T10:12:11.974Z,12.50
2023-01-27T10:14:47.537Z,8.25
2023-01-27T10:17:55.130Z,7.35
2023-01-27T10:20:43.632Z,7.68
2023-01-27T10:23:25.235Z,7.45
2023-01-27T10:26:08.419Z,8.00
2023-01-27T10:28:37.645Z,8.13
2023-01-27T10:31:36.289Z,6.90
2023-01-27T10:34:25.286Z,7.35
2023-01-27T10:37:04.062Z,10.00
2023-01-27T10:39:46.805Z,10.85
2023-01-27T10:42:45.204Z,7.70
2023-01-27T10:45:22.768Z,7.30
2023-01-27T10:47:58.381Z,6.05
2023-01-27T10:50:39.832Z,6.05
2023-01-27T10:53:19.957Z,6.30
2023-01-27T10:56:02.801Z,6.38
2023-01-27T10:58:47.609Z,6.60
2023-01-27T11:01:21.474Z,6.28
2023-01-27T11:04:00.674Z,4.80
2023-01-27T11:06:36.441Z,4.75
2023-01-27T11:09:16.086Z,4.50
2023-01-27T11:11:44.587Z,4.10
2023-01-27T11:14:22.614Z,3.17
2023-01-27T11:16:52.491Z,4.00
2023-01-27T11:19:39.935Z,2.85
2023-01-27T11:22:23.193Z,2.90
2023-01-27T11:25:01.112Z,2.13
2023-01-27T11:27:49.424Z,2.45
2023-01-27T11:30:22.194Z,2.50
2023-01-27T11:33:09.859Z,2.47
2023-01-27T11:35:36.562Z,1.73
2023-01-27T11:38:14.912Z,1.90
2023-01-27T11:40:42.424Z,1.50
2023-01-27T11:43:17.458Z,1.80
2023-01-27T11:45:46.249Z,2.05
2023-01-27T11:48:16.967Z,1.75
2023-01-27T11:50:44.760Z,6.40
2023-01-27T11:53:23.064Z,1.77
2023-01-27T11:55:54.979Z,1.40
2023-01-27T11:58:34.089Z,1.92
2023-01-27T12:01:05.560Z,1.40
2023-01-27T12:04:00.133Z,1.40
2023-01-27T12:06:54.407Z,1.50
2023-01-27T12:09:30.377Z,1.10
2023-01-27T12:12:11.359Z,1.10
2023-01-27T12:14:38.109Z,1.30
2023-01-27T12:17:06.718Z,1.50
2023-01-27T12:19:40.114Z,1.10
2023-01-27T12:22:28.865Z,1.48
2023-01-27T12:25:00.811Z,2.47
2023-01-27T12:27:31.177Z,1.05
2023-01-27T12:30:02.868Z,0.90
2023-01-27T12:32:42.272Z,0.82
2023-01-27T12:35:21.732Z,0.70
2023-01-27T12:37:50.022Z,0.88
2023-01-27T12:40:25.092Z,0.70
2023-01-27T12:45:40.900Z,0.60
2023-01-27T12:48:10.507Z,0.60
2023-01-27T12:50:40.256Z,0.60
2023-01-27T12:53:13.156Z,0.60
2023-01-27T12:56:00.089Z,0.70
2023-01-27T12:58:34.639Z,0.60
2023-01-27T13:01:21.350Z,0.70
2023-01-27T13:04:12.453Z,0.65
2023-01-27T13:06:44.625Z,0.57
2023-01-27T13:09:41.203Z,0.57
2023-01-27T13:12:20.481Z,0.70
2023-01-27T13:14:52.826Z,0.70
2023-01-27T13:17:48.772Z,0.68
2023-01-27T13:23:17.530Z,0.52
2023-01-27T13:26:14.266Z,0.50
2023-01-27T13:28:52.050Z,0.73
2023-01-27T13:31:57.215Z,0.60
2023-01-27T13:34:43.110Z,0.70
2023-01-27T13:37:31.414Z,0.93
2023-01-27T13:40:14.634Z,0.90
2023-01-27T13:42:44.177Z,0.70
2023-01-27T13:45:15.546Z,0.95
2023-01-27T13:47:53.400Z,0.80
2023-01-27T13:50:23.033Z,1.13
2023-01-27T13:52:58.084Z,0.70
2023-01-27T13:55:47.711Z,1.67
2023-01-27T13:58:21.367Z,1.20
2023-01-27T14:01:06.912Z,1.63
2023-01-27T14:06:23.270Z,1.20
2023-01-27T14:09:03.618Z,1.15
2023-01-27T14:11:40.903Z,1.00
2023-01-27T14:14:24.041Z,0.80
2023-01-27T14:17:15.038Z,0.90
2023-01-27T14:20:12.372Z,1.00
2023-01-27T14:22:56.629Z,1.27
2023-01-27T14:25:53.196Z,1.13
2023-01-27T14:28:43.787Z,0.82
2023-01-27T14:31:15.387Z,0.70
2023-01-27T14:33:54.493Z,0.90
2023-01-27T14:36:31.095Z,0.70
2023-01-27T14:39:16.650Z,1.00
2023-01-27T14:44:43.609Z,0.98
2023-01-27T14:47:23.423Z,0.70
2023-01-27T14:50:08.218Z,1.00
2023-01-27T14:52:54.173Z,0.95
2023-01-27T14:55:56.939Z,1.10
2023-01-27T14:58:41.937Z,0.60
2023-01-27T15:01:27.101Z,1.02
2023-01-27T15:04:41.990Z,0.75
2023-01-27T15:07:16.576Z,0.75
2023-01-27T15:10:15.140Z,1.10
2023-01-27T15:12:56.525Z,1.45
2023-01-27T15:15:47.548Z,1.42
2023-01-27T15:18:17.058Z,0.90
2023-01-27T15:20:56.775Z,1.30
2023-01-27T15:23:26.190Z,1.20
2023-01-27T15:26:00.331Z,1.00
2023-01-27T15:28:32.165Z,1.13
2023-01-27T15:31:13.949Z,0.90
2023-01-27T15:33:52.794Z,1.08
2023-01-27T15:36:28.261Z,1.20
2023-01-27T15:39:10.025Z,1.40
2023-01-27T15:41:54.270Z,1.10
2023-01-27T15:44:32.313Z,1.15
2023-01-27T15:47:21.819Z,1.38
2023-01-27T15:50:10.741Z,1.45
2023-01-27T15:52:48.565Z,1.38
2023-01-27T15:55:31.314Z,1.50
2023-01-27T15:58:09.946Z,1.50
2023-01-27T16:00:40.082Z,1.70
2023-01-27T16:03:25.042Z,1.50
2023-01-27T16:05:56.515Z,1.63
2023-01-27T16:08:25.724Z,1.40
2023-01-27T16:11:12.314Z,1.50
2023-01-27T16:13:39.293Z,1.88
2023-01-27T16:16:34.217Z,1.70
2023-01-27T16:19:16.097Z,1.73
2023-01-27T16:21:50.799Z,1.92
2023-01-27T16:24:31.298Z,1.60
2023-01-27T16:27:06.587Z,2.30
2023-01-27T16:29:39.373Z,2.17
2023-01-27T16:32:14.943Z,2.38
2023-01-27T16:34:50.414Z,2.45
2023-01-27T16:37:30.500Z,2.33
2023-01-27T16:40:09.322Z,2.25
2023-01-27T16:42:53.803Z,2.22
2023-01-27T16:45:23.781Z,2.65
2023-01-27T16:48:03.667Z,2.50
2023-01-27T16:50:41.831Z,2.67
2023-01-27T16:53:19.562Z,2.60
2023-01-27T16:55:57.466Z,2.45
2023-01-27T16:58:32.414Z,2.80
2023-01-27T17:01:03.049Z,3.28
2023-01-27T17:03:37.968Z,3.10
2023-01-27T17:06:14.410Z,3.22
2023-01-27T17:08:46.265Z,3.05
2023-01-27T17:11:23.714Z,3.25
2023-01-27T17:13:56.286Z,4.53
2023-01-27T17:16:32.313Z,4.78
2023-01-27T17:19:26.806Z,4.28
2023-01-27T17:22:32.103Z,5.80
2023-01-27T17:25:04.873Z,10.90
2023-01-27T17:27:36.106Z,8.93
2023-01-27T17:30:18.467Z,6.43
2023-01-27T17:32:51.117Z,5.93
2023-01-27T17:35:20.833Z,6.20
2023-01-27T17:37:47.523Z,6.03
2023-01-27T17:40:17.578Z,6.22
2023-01-27T17:42:45.147Z,6.70
2023-01-27T17:45:28.747Z,4.50
2023-01-27T17:47:59.630Z,4.88
2023-01-27T17:50:37.063Z,5.05
2023-01-27T17:53:10.004Z,6.50
2023-01-27T17:55:37.151Z,5.30
2023-01-27T17:58:11.907Z,5.40
2023-01-27T18:00:41.217Z,11.43
2023-01-27T18:03:19.980Z,9.50
2023-01-27T18:05:49.859Z,12.65
2023-01-27T18:08:18.740Z,7.78
2023-01-27T18:10:46.365Z,4.90
2023-01-27T18:13:18.987Z,4.03
2023-01-27T18:15:59.906Z,3.60
2023-01-27T18:18:34.455Z,4.80
2023-01-27T18:21:05.352Z,3.72
2023-01-27T18:23:46.425Z,4.10
2023-01-27T18:26:51.456Z,3.90
2023-01-27T18:29:22.596Z,4.28
2023-01-27T18:31:56.646Z,3.92
2023-01-27T18:34:34.092Z,3.42
2023-01-27T18:37:06.033Z,5.45
2023-01-27T18:39:36.256Z,4.45
2023-01-27T18:42:10.017Z,4.30
2023-01-27T18:44:37.119Z,3.40
2023-01-27T18:47:34.236Z,3.70
2023-01-27T18:50:16.855Z,4.13
2023-01-27T18:52:44.109Z,3.80
2023-01-27T18:55:17.928Z,3.80
2023-01-27T18:57:46.297Z,4.05
2023-01-27T19:00:19.684Z,3.80
2023-01-27T19:02:49.008Z,3.45
2023-01-27T19:05:21.801Z,3.90
2023-01-27T19:07:48.665Z,3.60
2023-01-27T19:10:18.829Z,3.90
2023-01-27T19:12:45.838Z,4.10
2023-01-27T19:15:15.096Z,4.20
2023-01-27T19:17:44.362Z,3.95
2023-01-27T19:20:19.992Z,4.32
2023-01-27T19:22:48.965Z,4.47
2023-01-27T19:25:16.268Z,5.50
2023-01-27T19:27:47.270Z,5.05
2023-01-27T19:30:40.614Z,4.93
2023-01-27T19:33:21.678Z,5.05
2023-01-27T19:35:55.696Z,4.30
2023-01-27T19:38:25.560Z,4.80
2023-01-27T19:40:52.380Z,4.63
2023-01-27T19:43:19.281Z,4.68
2023-01-27T19:45:47.942Z,5.20
2023-01-27T19:48:23.162Z,4.57
2023-01-27T19:50:51.639Z,5.25
2023-01-27T19:53:19.736Z,5.07
2023-01-27T19:55:50.161Z,4.97
2023-01-27T19:58:23.132Z,5.40
2023-01-27T20:00:50.187Z,5.30
2023-01-27T20:03:17.208Z,5.20
2023-01-27T20:05:44.285Z,4.85
2023-01-27T20:08:19.436Z,5.55
2023-01-27T20:13:20.691Z,5.40
2023-01-27T20:15:50.661Z,5.75
2023-01-27T20:18:18.305Z,4.97
2023-01-27T20:20:46.578Z,5.70
2023-01-27T20:23:16.528Z,5.43
2023-01-27T20:25:43.247Z,4.82
2023-01-27T20:28:10.476Z,4.82
2023-01-27T20:30:37.317Z,5.28
2023-01-27T20:35:45.338Z,5.35
2023-01-27T20:38:12.135Z,4.65
2023-01-27T20:40:38.835Z,4.82
2023-01-27T20:43:05.491Z,5.05
2023-01-27T20:45:32.529Z,4.78
2023-01-27T20:47:59.753Z,4.85
2023-01-27T20:50:26.704Z,5.03
2023-01-27T20:52:53.723Z,4.85
2023-01-27T20:55:20.354Z,4.88
2023-01-27T20:57:47.586Z,5.07
2023-01-27T21:00:19.734Z,4.82
2023-01-27T21:02:46.707Z,4.30
2023-01-27T21:05:14.354Z,4.50
2023-01-27T21:07:41.354Z,4.05
2023-01-27T21:10:08.927Z,4.57
2023-01-27T21:12:35.655Z,4.57
2023-01-27T21:15:03.316Z,4.55
2023-01-27T21:17:29.897Z,4.50
2023-01-27T21:19:56.558Z,4.38
2023-01-27T21:22:23.216Z,4.07
2023-01-27T21:24:49.803Z,4.07
2023-01-27T21:27:16.571Z,4.20
2023-01-27T21:29:43.995Z,3.60
2023-01-27T21:32:10.722Z,3.92
2023-01-27T21:34:37.429Z,3.70
2023-01-27T21:37:04.273Z,4.05
2023-01-27T21:39:31.002Z,4.25
2023-01-27T21:41:57.763Z,4.32
2023-01-27T21:44:45.229Z,4.32
2023-01-27T21:47:14.818Z,4.32
2023-01-27T21:50:01.586Z,4.20
2023-01-27T21:52:39.409Z,3.50
2023-01-27T21:55:09.165Z,3.92
2023-01-27T21:57:36.076Z,3.80
2023-01-27T22:00:05.182Z,4.00
2023-01-27T22:02:32.117Z,4.40
2023-01-27T22:04:58.865Z,3.72
2023-01-27T22:07:26.974Z,4.72
2023-01-27T22:09:53.751Z,4.43
2023-01-27T22:12:22.128Z,4.60
2023-01-27T22:14:49.297Z,4.30
2023-01-27T22:17:17.092Z,4.40
2023-01-27T22:19:45.622Z,5.00
2023-01-27T22:22:13.539Z,4.30
2023-01-27T22:24:40.418Z,4.53
2023-01-27T22:27:07.144Z,4.60
2023-01-27T22:29:33.899Z,4.57
2023-01-27T22:32:00.519Z,4.32
2023-01-27T22:34:27.233Z,4.70
2023-01-27T22:36:53.873Z,3.90
2023-01-27T22:39:20.651Z,4.47
2023-01-27T22:41:47.488Z,4.00
2023-01-27T22:44:14.479Z,4.00
2023-01-27T22:46:42.570Z,3.80
2023-01-27T22:49:10.771Z,4.18
2023-01-27T22:51:37.943Z,4.07
2023-01-27T22:54:04.794Z,4.10
2023-01-27T22:56:31.422Z,3.95
2023-01-27T22:58:58.124Z,4.25
2023-01-27T23:01:24.715Z,4.28
2023-01-27T23:03:51.496Z,4.47
2023-01-27T23:06:18.188Z,4.63
2023-01-27T23:08:44.789Z,4.65
2023-01-27T23:11:12.063Z,4.40
2023-01-27T23:13:38.808Z,4.10
2023-01-27T23:16:05.885Z,4.55
2023-01-27T23:18:32.864Z,4.15
2023-01-27T23:21:08.017Z,4.07
